Pagina principale
METAR-TAF:

METAR-TAF

Aeroporti :

Palermo, Italia

Aeroporto di Palermo-Punta Raisi

latitudine: 38-11N, longitudine: 013-06E, altezza: 21 m

Osservazione

Il bollettino è stato emesso 42 minuti fa, alle 11:20 UTC
Vento 8 kt da ovest/nord-ovest, variando fra ovest e nord/nord-ovest
Temperature 17°C
Umidità 63%
Pressione 1016 hPa
Visibilità 10 km o più
Poco nuvoloso ad un'altezza di 3000 ft

METAR: LICJ 191120Z 29008KT 270V330 9999 FEW030 17/10 Q1016

Ora: 13:02 (12:02 UTC)

Previsione

Il bollettino è stato emesso 1 ora e 2 minuti fa, alle 11:00 UTC
Previsione valida dal 19 alle 12 UTC al 20 alle 12 UTC
Vento 12 kt da ovest/nord-ovest
Visibilità 10 km o più
Nubi sparse ad un'altezza di 3000 ft
Evoluzione graduale
dal 19 alle 21 UTC al 19 alle 23 UTC
Vento 5 kt da direzioni variabili
Evoluzione graduale
dal 20 alle 07 UTC al 20 alle 09 UTC
Vento 12 kt da nord/nord-est

TAF: LICJ 191100Z 1912/2012 29012KT 9999 SCT030 BECMG 1921/1923 VRB05KT BECMG 2007/2009 03012KT

Osservazioni e previsioni meteorologiche di più di 4000 aeroporti (messaggi METAR e TAF).

Le stazioni disponibili sono rappresentate dai dischi gialli e rossi sulla carta.

Puntare il mouse per vedere il nome della stazione.

Clicca sopra per visualizzare le osservazioni e previsioni meteorologiche.

Per cambiare la mappa : fare clic sui pulsanti verdi con una croce nera per ingrandire, il pulsante verde con un trattino per diminuire, o sulla freccia verde per le mappe adiacenti.


METAR-TAF: